Have a Safe July 4th! 

Flight Track Log - Related Links

Times and Time Zones

All times are in EDT time to prevent confusion due to time zone crossing. See the N364PH flight status page for this flight to view local times or setup timezone preferences in your user account.

Time Position Orientation Groundspeed Altitude Reporting Facility
EDT Latitude Longitude Course Direction KTS MPH feet Rate Location/Type
Tue 01:15:00 PM 39.9973 -76.9999 19° North  Level Estimated
Tue 01:16:00 PM 40.0590 -76.9724 19° North  Level Estimated
Tue 01:17:00 PM 40.1207 -76.9448 19° North  Level Estimated
Tue 01:18:00 PM 40.1824 -76.9172 19° North  Level Estimated
Tue 01:19:00 PM 40.2441 -76.8896 19° North  Level Estimated
Tue 01:20:00 PM 40.3058 -76.8619 19° North  Level Estimated
Tue 01:21:00 PM 40.3675 -76.8341 19° North  Level Estimated
Tue 01:22:00 PM 40.4291 -76.8063 19° North  Level Estimated
Tue 01:23:00 PM 40.4908 -76.7785 19° North  Level Estimated
Tue 01:24:00 PM 40.5524 -76.7506 19° North  Level Estimated
Tue 01:25:00 PM 40.6141 -76.7226 19° North  Level Estimated
Tue 01:26:00 PM 40.6757 -76.6946 19° North  Level Estimated
Tue 01:27:00 PM 40.7373 -76.6665 19° North  Level Estimated
Tue 01:28:00 PM 40.7989 -76.6384 19° North  Level Estimated
Tue 01:29:00 PM 40.8605 -76.6103 19° North  Level Estimated
Tue 01:30:00 PM 40.9222 -76.5820 19° North  Level Estimated
Tue 01:31:00 PM 40.9838 -76.5538 19° North  Level Estimated
Tue 01:32:00 PM 41.0453 -76.5254 19° North  Level Estimated
Tue 01:33:00 PM 41.1069 -76.4971 19° North  Level Estimated
Tue 01:34:00 PM 41.1685 -76.4686 19° North  Level Estimated
Tue 01:35:00 PM 41.2301 -76.4401 19° North  Level Estimated
Tue 01:36:00 PM 41.2917 -76.4116 19° North  Level Estimated
Tue 01:37:00 PM 41.3532 -76.3830 19° North  Level Estimated
Tue 01:38:00 PM 41.4148 -76.3544 19° North  Level Estimated
Tue 01:39:00 PM 41.4763 -76.3257 19° North  Level Estimated
Tue 01:40:00 PM 41.5378 -76.2969 19° North  Level Estimated
Tue 01:41:00 PM 41.5994 -76.2681 19° North  Level Estimated
Tue 01:42:00 PM 41.6609 -76.2393 19° North  Level Estimated
Tue 01:43:00 PM 41.7224 -76.2103 19° North  Level Estimated
Tue 01:44:00 PM 41.7839 -76.1814 19° North  Level Estimated
Tue 01:45:00 PM 41.8454 -76.1523 19° North  Level Estimated
Tue 01:46:00 PM 41.9069 -76.1233 19° North  Level Estimated
Tue 01:47:00 PM 41.9684 -76.0941 19° North  Level Estimated
Tue 01:48:00 PM 42.0299 -76.0649 19° North  Level Estimated
Tue 01:49:00 PM 42.0914 -76.0357 19° North  Level Estimated
Tue 01:50:00 PM 42.1528 -76.0063 19° North  Level Estimated
Tue 01:51:00 PM 42.2086 -75.9797 19° North  Level Estimated
Tue 01:52:00 PM 42.2086 -75.9797 200° South  Level Estimated
Tue 01:53:00 PM 42.2086 -75.9797 200° South  Level Estimated
Tue 01:54:00 PM 42.2086 -75.9797 200° South  Level Estimated
Tue 01:55:00 PM 42.2086 -75.9797 200° South  Level Estimated
Tue 01:56:00 PM 42.2086 -75.9797 200° South  Level Estimated
Tue 01:57:00 PM 42.2086 -75.9797 200° South  Level Estimated
Tue 01:58:00 PM 42.2086 -75.9797 200° South  Level Estimated
Tue 01:59:00 PM 42.2086 -75.9797 200° South  Level Estimated
Tue 02:00:00 PM 42.2086 -75.9797 200° South  Level Estimated
Tue 02:01:00 PM 42.2086 -75.9797 200° South  Level Estimated
Tue 02:02:00 PM 42.2086 -75.9797 200° South  Level Estimated
Tue 02:03:00 PM 42.2086 -75.9797 200° South  Level Estimated
Tue 02:04:00 PM 42.2086 -75.9797 200° South  Level Estimated

Login

Don't have an account? Register now (free) for customized features, flight alerts, and more!